YSH weather

Smiths Falls-Montague (Russ Beach) Airport
Smiths Falls, Ontario, Canada

Public forecast

Using degrees Celsius for public forecast. Weather courtesy of forecast.io.

METAR (pilot weather report)

Closest report is Ottawa Macdonald-Cartier International Airport, 25.4 nm (47.0 km) NNE. Retrieved 2019/05/26 10:19 UTC (7 minutes ago):

CYOW 261019Z 21010KT 4SM BR OVC004 16/16 A2976 RMK ST8 SLP080 DENSITY ALT 800FT

TAF (pilot weather forecast)

Closest forecast is Ottawa Macdonald-Cartier International Airport, 25.4 nm (47.0 km) NNE. Retrieved 2019/05/26 09:51 UTC (35 minutes ago):

TAF TAF CYOW 260841Z 2609/2706 25006KT P6SM FEW005 SCT020 BKN050 TEMPO 2609/2611 3SM BR BKN005 OVC015 PROB30 2609/2611 2SM TSRA BR SCT005 OVC020CB FM261100 27012G22KT P6SM FEW005 SCT012 TEMPO 2611/2613 BKN012 BECMG 2611/2613 29015G25KT FM261300 29015G25KT P6SM SCT030 TEMPO 2613/2615 BKN030 FM261500 30015G25KT P6SM BKN030 BECMG 2622/2624 30012KT FM270300 36010KT P6SM FEW040 RMK NXT FCST BY 261200Z